createdAt,value
2022-11-23T00:01:49.778Z,7.68
2022-11-23T00:04:23.528Z,7.18
2022-11-23T00:06:50.450Z,7.32
2022-11-23T00:09:23.512Z,7.85
2022-11-23T00:11:50.405Z,7.03
2022-11-23T00:14:24.585Z,6.20
2022-11-23T00:16:51.901Z,6.55
2022-11-23T00:19:18.764Z,6.57
2022-11-23T00:21:52.558Z,6.82
2022-11-23T00:24:19.468Z,6.75
2022-11-23T00:26:52.524Z,6.45
2022-11-23T00:29:19.441Z,6.78
2022-11-23T00:31:52.543Z,7.50
2022-11-23T00:34:25.540Z,7.35
2022-11-23T00:36:58.573Z,7.43
2022-11-23T00:39:32.427Z,7.68
2022-11-23T00:42:05.588Z,7.45
2022-11-23T00:44:32.413Z,6.45
2022-11-23T00:47:05.551Z,6.60
2022-11-23T00:49:32.742Z,6.57
2022-11-23T00:52:06.598Z,7.10
2022-11-23T00:54:33.536Z,6.82
2022-11-23T00:57:00.415Z,7.22
2022-11-23T00:59:33.949Z,7.45
2022-11-23T01:02:01.115Z,7.35
2022-11-23T01:04:28.208Z,7.68
2022-11-23T01:07:04.563Z,6.75
2022-11-23T01:09:31.706Z,6.95
2022-11-23T01:12:05.548Z,7.40
2022-11-23T01:14:32.416Z,7.20
2022-11-23T01:17:05.595Z,6.82
2022-11-23T01:19:32.588Z,7.28
2022-11-23T01:22:06.554Z,7.82
2022-11-23T01:24:39.606Z,7.50
2022-11-23T01:27:06.484Z,6.80
2022-11-23T01:29:39.555Z,7.18
2022-11-23T01:32:06.426Z,6.43
2022-11-23T01:34:39.622Z,6.22
2022-11-23T01:37:06.467Z,6.32
2022-11-23T01:39:39.580Z,6.07
2022-11-23T01:42:06.474Z,6.57
2022-11-23T01:44:41.592Z,6.25
2022-11-23T01:47:09.308Z,6.40
2022-11-23T01:49:47.568Z,5.75
2022-11-23T01:52:20.556Z,6.72
2022-11-23T01:55:08.119Z,6.78
2022-11-23T01:57:39.084Z,6.45
2022-11-23T02:00:13.657Z,7.28
2022-11-23T02:02:44.627Z,6.72
2022-11-23T02:05:18.563Z,7.07
2022-11-23T02:07:53.645Z,6.82
2022-11-23T02:10:27.623Z,7.15
2022-11-23T02:13:00.596Z,6.35
2022-11-23T02:15:27.548Z,5.53
2022-11-23T02:18:00.621Z,6.30
2022-11-23T02:20:27.606Z,6.03
2022-11-23T02:23:34.595Z,4.85
2022-11-23T02:26:09.931Z,5.68
2022-11-23T02:28:50.599Z,5.80
2022-11-23T02:31:17.439Z,5.30
2022-11-23T02:33:50.651Z,5.07
2022-11-23T02:36:40.040Z,5.38
2022-11-23T02:39:37.648Z,5.15
2022-11-23T02:42:05.078Z,5.53
2022-11-23T02:45:02.579Z,5.75
2022-11-23T02:47:29.515Z,5.15
2022-11-23T02:49:56.527Z,5.93
2022-11-23T02:52:29.581Z,5.30
2022-11-23T02:54:56.423Z,5.60
2022-11-23T02:57:29.601Z,5.50
2022-11-23T02:59:56.490Z,5.45
2022-11-23T03:02:29.577Z,5.20
2022-11-23T03:04:56.465Z,5.28
2022-11-23T03:07:29.685Z,5.47
2022-11-23T03:09:56.624Z,5.10
2022-11-23T03:12:29.659Z,5.82
2022-11-23T03:14:56.571Z,5.93
2022-11-23T03:17:23.472Z,5.15
2022-11-23T03:19:57.686Z,4.57
2022-11-23T03:22:24.719Z,4.78
2022-11-23T03:24:57.666Z,5.22
2022-11-23T03:27:24.508Z,5.25
2022-11-23T03:29:57.675Z,4.78
2022-11-23T03:32:30.653Z,5.10
2022-11-23T03:34:57.506Z,5.03
2022-11-23T03:37:30.587Z,5.28
2022-11-23T03:39:57.440Z,5.18
2022-11-23T03:42:24.389Z,4.60
2022-11-23T03:44:57.718Z,4.40
2022-11-23T03:47:31.626Z,4.97
2022-11-23T03:50:04.654Z,4.97
2022-11-23T03:52:37.676Z,5.28
2022-11-23T03:55:05.301Z,5.25
2022-11-23T03:57:32.180Z,5.25
2022-11-23T04:00:05.639Z,4.63
2022-11-23T04:02:32.611Z,4.13
2022-11-23T04:05:05.664Z,5.25
2022-11-23T04:07:32.715Z,5.20
2022-11-23T04:10:05.644Z,4.38
2022-11-23T04:12:32.573Z,4.30
2022-11-23T04:15:05.676Z,4.47
2022-11-23T04:17:32.555Z,4.90
2022-11-23T04:20:05.653Z,4.32
2022-11-23T04:22:38.716Z,5.47
2022-11-23T04:25:06.073Z,4.53
2022-11-23T04:27:39.667Z,4.32
2022-11-23T04:30:07.378Z,4.20
2022-11-23T04:32:40.757Z,4.40
2022-11-23T04:35:14.700Z,4.20
2022-11-23T04:37:41.693Z,4.10
2022-11-23T04:40:16.707Z,3.78
2022-11-23T04:42:49.655Z,4.05
2022-11-23T04:45:22.661Z,4.40
2022-11-23T04:47:49.599Z,3.50
2022-11-23T04:50:23.725Z,3.28
2022-11-23T04:52:50.614Z,3.33
2022-11-23T04:55:17.672Z,3.45
2022-11-23T04:57:50.635Z,4.15
2022-11-23T05:00:17.948Z,4.13
2022-11-23T05:02:51.750Z,3.40
2022-11-23T05:05:18.813Z,3.70
2022-11-23T05:07:45.746Z,3.67
2022-11-23T05:10:19.719Z,3.60
2022-11-23T05:12:53.687Z,3.50
2022-11-23T05:15:26.750Z,3.70
2022-11-23T05:17:58.849Z,3.72
2022-11-23T05:20:32.718Z,3.90
2022-11-23T05:22:59.778Z,3.70
2022-11-23T05:25:27.034Z,4.90
2022-11-23T05:28:07.501Z,9.38
2022-11-23T05:30:54.677Z,10.45
2022-11-23T05:33:21.655Z,7.43
2022-11-23T05:35:48.774Z,4.38
2022-11-23T05:38:22.674Z,3.70
2022-11-23T05:40:55.672Z,3.75
2022-11-23T05:43:22.631Z,3.95
2022-11-23T05:45:55.691Z,3.83
2022-11-23T05:48:22.693Z,3.95
2022-11-23T05:50:50.709Z,3.75
2022-11-23T05:53:23.705Z,5.43
2022-11-23T05:55:50.729Z,7.95
2022-11-23T05:58:23.713Z,6.85
2022-11-23T06:00:50.766Z,5.80
2022-11-23T06:03:23.750Z,4.45
2022-11-23T06:05:50.730Z,3.67
2022-11-23T06:08:23.687Z,4.38
2022-11-23T06:10:50.677Z,3.70
2022-11-23T06:13:23.763Z,3.10
2022-11-23T06:15:56.746Z,3.03
2022-11-23T06:18:23.651Z,3.15
2022-11-23T06:20:56.773Z,4.40
2022-11-23T06:23:23.832Z,4.75
2022-11-23T06:25:57.700Z,5.80
2022-11-23T06:28:30.777Z,8.50
2022-11-23T06:31:01.928Z,8.35
2022-11-23T06:33:28.907Z,4.30
2022-11-23T06:36:03.770Z,5.07
2022-11-23T06:38:37.673Z,5.93
2022-11-23T06:41:10.780Z,4.47
2022-11-23T06:43:37.714Z,3.80
2022-11-23T06:46:12.749Z,3.78
2022-11-23T06:48:39.625Z,3.97
2022-11-23T06:51:12.746Z,5.60
2022-11-23T06:53:45.783Z,7.90
2022-11-23T06:56:19.847Z,6.22
2022-11-23T06:58:46.919Z,5.63
2022-11-23T07:01:14.514Z,5.97
2022-11-23T07:03:47.766Z,4.10
2022-11-23T07:06:21.784Z,4.40
2022-11-23T07:08:55.008Z,3.60
2022-11-23T07:11:21.968Z,4.10
2022-11-23T07:13:55.795Z,5.72
2022-11-23T07:16:22.727Z,5.57
2022-11-23T07:18:56.081Z,4.20
2022-11-23T07:21:22.975Z,4.63
2022-11-23T07:23:56.897Z,4.80
2022-11-23T07:26:23.810Z,4.85
2022-11-23T07:28:50.713Z,4.47
2022-11-23T07:31:23.717Z,4.10
2022-11-23T07:33:56.750Z,3.42
2022-11-23T07:36:23.677Z,3.10
2022-11-23T07:38:56.745Z,3.70
2022-11-23T07:41:29.693Z,4.15
2022-11-23T07:43:56.598Z,11.27
2022-11-23T07:46:29.765Z,9.68
2022-11-23T07:48:56.765Z,8.52
2022-11-23T07:51:29.730Z,7.72
2022-11-23T07:53:56.816Z,7.68
2022-11-23T07:56:30.746Z,7.68
2022-11-23T07:58:57.637Z,6.65
2022-11-23T08:01:30.740Z,5.82
2022-11-23T08:04:04.790Z,7.68
2022-11-23T08:06:31.668Z,5.82
2022-11-23T08:09:04.767Z,5.75
2022-11-23T08:11:31.683Z,6.80
2022-11-23T08:14:04.853Z,11.43
2022-11-23T08:16:38.748Z,14.20
2022-11-23T08:19:05.770Z,18.05
2022-11-23T08:21:38.720Z,17.65
2022-11-23T08:24:06.024Z,18.63
2022-11-23T08:26:39.790Z,19.45
2022-11-23T08:29:16.080Z,14.27
2022-11-23T08:31:42.992Z,11.10
2022-11-23T08:34:16.715Z,8.77
2022-11-23T08:36:43.617Z,7.30
2022-11-23T08:39:16.762Z,9.82
2022-11-23T08:41:49.764Z,12.20
2022-11-23T08:44:30.152Z,12.88
2022-11-23T08:47:03.806Z,9.95
2022-11-23T08:49:30.685Z,9.30
2022-11-23T08:52:03.781Z,8.80
2022-11-23T08:54:38.767Z,7.13
2022-11-23T08:57:05.714Z,7.18
2022-11-23T08:59:38.738Z,5.80
2022-11-23T09:02:05.637Z,5.78
2022-11-23T09:04:38.768Z,6.88
2022-11-23T09:07:05.743Z,5.80
2022-11-23T09:09:38.779Z,4.57
2022-11-23T09:12:06.207Z,5.10
2022-11-23T09:14:39.780Z,4.80
2022-11-23T09:17:06.705Z,4.55
2022-11-23T09:19:39.758Z,4.63
2022-11-23T09:22:06.654Z,4.70
2022-11-23T09:24:39.838Z,3.80
2022-11-23T09:27:06.822Z,3.72
2022-11-23T09:29:42.266Z,3.95
2022-11-23T09:32:09.132Z,3.65
2022-11-23T09:34:36.114Z,3.28
2022-11-23T09:37:09.798Z,4.25
2022-11-23T09:39:36.702Z,4.05
2022-11-23T09:42:21.766Z,3.08
2022-11-23T09:45:27.593Z,3.45
2022-11-23T09:48:35.839Z,3.65
2022-11-23T09:51:23.844Z,4.07
2022-11-23T09:54:02.352Z,4.30
2022-11-23T09:56:41.796Z,3.42
2022-11-23T09:59:21.422Z,3.58
2022-11-23T10:01:54.869Z,3.13
2022-11-23T10:04:21.987Z,3.22
2022-11-23T10:07:02.757Z,3.20
2022-11-23T10:10:06.853Z,3.55
2022-11-23T10:12:46.807Z,4.05
2022-11-23T10:15:37.925Z,4.10
2022-11-23T10:18:29.793Z,4.47
2022-11-23T10:21:25.834Z,4.32
2022-11-23T10:24:08.878Z,2.95
2022-11-23T10:26:41.282Z,3.03
2022-11-23T10:29:35.805Z,2.88
2022-11-23T10:32:02.706Z,2.50
2022-11-23T10:34:57.849Z,2.13
2022-11-23T10:37:24.780Z,2.25
2022-11-23T10:39:57.845Z,2.85
2022-11-23T10:42:48.858Z,1.90
2022-11-23T10:45:27.060Z,2.38
2022-11-23T10:48:07.858Z,2.00
2022-11-23T10:50:36.772Z,2.17
2022-11-23T10:53:06.685Z,2.40
2022-11-23T10:55:52.895Z,2.00
2022-11-23T10:58:39.843Z,1.80
2022-11-23T11:01:31.987Z,1.70
2022-11-23T11:04:09.799Z,1.60
2022-11-23T11:06:36.709Z,1.50
2022-11-23T11:09:25.873Z,1.55
2022-11-23T11:11:58.799Z,1.40
2022-11-23T11:14:25.841Z,1.20
2022-11-23T11:17:03.836Z,0.90
2022-11-23T11:19:35.627Z,1.30
2022-11-23T11:22:30.876Z,0.93
2022-11-23T11:25:06.250Z,1.20
2022-11-23T11:27:39.824Z,1.15
2022-11-23T11:30:14.921Z,1.58
2022-11-23T11:33:10.962Z,1.35
2022-11-23T11:35:51.903Z,1.00
2022-11-23T11:38:34.912Z,0.80
2022-11-23T11:41:08.454Z,0.77
2022-11-23T11:43:50.865Z,0.82
2022-11-23T11:46:31.138Z,0.73
2022-11-23T11:49:30.960Z,0.68
2022-11-23T11:52:20.759Z,0.77
2022-11-23T11:55:19.969Z,0.70
2022-11-23T11:57:55.304Z,1.10
2022-11-23T12:00:28.871Z,1.13
2022-11-23T12:03:18.491Z,1.13
2022-11-23T12:05:59.907Z,1.60
2022-11-23T12:09:06.402Z,1.85
2022-11-23T12:11:39.984Z,1.80
2022-11-23T12:14:11.051Z,1.90
2022-11-23T12:17:31.415Z,2.90
2022-11-23T12:20:02.302Z,2.63
2022-11-23T12:22:45.874Z,1.70
2022-11-23T12:25:27.342Z,1.85
2022-11-23T12:28:25.971Z,1.98
2022-11-23T12:31:07.862Z,2.72
2022-11-23T12:34:16.911Z,2.42
2022-11-23T12:37:17.917Z,2.70
2022-11-23T12:40:20.928Z,2.75
2022-11-23T12:42:56.032Z,2.60
2022-11-23T12:45:51.986Z,2.03
2022-11-23T12:48:37.070Z,2.92
2022-11-23T12:52:19.881Z,3.40
2022-11-23T12:55:31.933Z,1.92
2022-11-23T12:58:15.023Z,1.90
2022-11-23T13:00:53.584Z,2.22
2022-11-23T13:04:11.928Z,2.20
2022-11-23T13:07:28.959Z,2.10
2022-11-23T13:10:31.932Z,2.00
2022-11-23T13:13:23.944Z,2.28
2022-11-23T13:16:34.844Z,1.88
2022-11-23T13:19:29.929Z,2.30
2022-11-23T13:21:56.920Z,2.22
2022-11-23T13:24:41.954Z,2.22
2022-11-23T13:27:15.006Z,3.97
2022-11-23T13:29:56.886Z,3.70
2022-11-23T13:32:39.214Z,3.53
2022-11-23T13:35:27.888Z,4.70
2022-11-23T13:37:57.460Z,3.22
2022-11-23T13:40:38.956Z,2.40
2022-11-23T13:43:21.954Z,1.75
2022-11-23T13:46:25.943Z,2.70
2022-11-23T13:48:59.900Z,3.42
2022-11-23T13:51:33.818Z,2.75
2022-11-23T13:54:27.983Z,2.78
2022-11-23T13:57:01.452Z,1.80
2022-11-23T13:59:38.960Z,2.97
2022-11-23T14:02:09.004Z,2.67
2022-11-23T14:04:46.994Z,2.20
2022-11-23T14:07:24.720Z,2.53
2022-11-23T14:10:10.134Z,2.60
2022-11-23T14:12:57.317Z,1.90
2022-11-23T14:15:32.971Z,2.28
2022-11-23T14:18:29.946Z,3.42
2022-11-23T14:21:17.530Z,2.60
2022-11-23T14:24:14.149Z,2.25
2022-11-23T14:27:45.772Z,2.00
2022-11-23T14:30:28.984Z,2.78
2022-11-23T14:33:16.768Z,3.13
2022-11-23T14:36:05.006Z,2.97
2022-11-23T14:39:02.975Z,4.13
2022-11-23T14:41:39.022Z,2.40
2022-11-23T14:44:05.943Z,3.25
2022-11-23T14:47:16.029Z,4.65
2022-11-23T14:49:50.557Z,2.10
2022-11-23T14:52:27.984Z,2.50
2022-11-23T14:55:00.107Z,4.40
2022-11-23T14:57:53.940Z,4.47
2022-11-23T15:00:38.561Z,2.67
2022-11-23T15:06:16.204Z,2.60
2022-11-23T15:09:02.998Z,2.67
2022-11-23T15:11:35.955Z,2.58
2022-11-23T15:14:02.999Z,2.50
2022-11-23T15:16:32.388Z,2.60
2022-11-23T15:19:30.969Z,3.08
2022-11-23T15:22:04.052Z,2.83
2022-11-23T15:24:31.601Z,3.65
2022-11-23T15:27:12.731Z,4.13
2022-11-23T15:29:40.002Z,4.57
2022-11-23T15:32:37.087Z,8.80
2022-11-23T15:35:13.048Z,13.23
2022-11-23T15:37:46.886Z,17.90
2022-11-23T15:40:25.011Z,16.73
2022-11-23T15:42:51.937Z,13.75
2022-11-23T15:45:46.012Z,13.43
2022-11-23T15:48:21.758Z,9.65
2022-11-23T15:51:06.025Z,6.43
2022-11-23T15:53:50.054Z,5.28
2022-11-23T15:56:38.098Z,5.80
2022-11-23T15:59:34.975Z,5.30
2022-11-23T16:02:11.077Z,4.85
2022-11-23T16:04:39.996Z,5.43
2022-11-23T16:07:23.152Z,5.55
2022-11-23T16:10:43.459Z,6.80
2022-11-23T16:13:44.030Z,6.35
2022-11-23T16:16:16.100Z,5.70
2022-11-23T16:18:54.024Z,7.10
2022-11-23T16:21:21.090Z,6.70
2022-11-23T16:24:03.013Z,5.80
2022-11-23T16:26:39.073Z,4.35
2022-11-23T16:29:05.985Z,5.35
2022-11-23T16:31:47.019Z,10.30
2022-11-23T16:34:16.976Z,15.00
2022-11-23T16:36:43.914Z,11.10
2022-11-23T16:39:18.038Z,5.13
2022-11-23T16:41:45.008Z,3.40
2022-11-23T16:44:18.052Z,3.08
2022-11-23T16:46:47.263Z,2.90
2022-11-23T16:49:26.035Z,3.25
2022-11-23T16:51:56.725Z,6.78
2022-11-23T16:54:31.075Z,9.80
2022-11-23T16:56:57.972Z,10.27
2022-11-23T16:59:31.639Z,9.30
2022-11-23T17:01:59.374Z,9.98
2022-11-23T17:04:26.454Z,5.75
2022-11-23T17:07:00.079Z,3.38
2022-11-23T17:09:27.016Z,3.38
2022-11-23T17:12:00.048Z,3.92
2022-11-23T17:14:33.423Z,4.57
2022-11-23T17:17:07.046Z,4.43
2022-11-23T17:19:41.050Z,4.93
2022-11-23T17:22:08.016Z,5.10
2022-11-23T17:24:41.068Z,5.53
2022-11-23T17:27:15.991Z,6.57
2022-11-23T17:29:50.072Z,5.60
2022-11-23T17:32:23.095Z,5.82
2022-11-23T17:34:50.060Z,6.25
2022-11-23T17:37:30.054Z,5.50
2022-11-23T17:40:03.108Z,6.15
2022-11-23T17:42:30.069Z,6.75
2022-11-23T17:45:03.072Z,6.82
2022-11-23T17:47:30.276Z,6.75
2022-11-23T17:49:57.589Z,8.60
2022-11-23T17:52:31.061Z,7.90
2022-11-23T17:55:04.124Z,12.10
2022-11-23T17:57:31.282Z,11.73
2022-11-23T18:00:05.132Z,11.32
2022-11-23T18:02:32.121Z,9.15
2022-11-23T18:05:05.109Z,8.32
2022-11-23T18:07:32.381Z,7.03
2022-11-23T18:09:59.659Z,8.48
2022-11-23T18:12:33.170Z,7.93
2022-11-23T18:15:00.221Z,7.70
2022-11-23T18:17:34.142Z,9.02
2022-11-23T18:20:01.142Z,7.40
2022-11-23T18:22:35.051Z,9.52
2022-11-23T18:25:02.293Z,8.90
2022-11-23T18:27:36.301Z,9.32
2022-11-23T18:30:03.697Z,8.93
2022-11-23T18:32:37.157Z,8.70
2022-11-23T18:35:04.471Z,8.48
2022-11-23T18:37:45.066Z,7.38
2022-11-23T18:40:13.022Z,6.97
2022-11-23T18:42:46.095Z,6.65
2022-11-23T18:45:19.761Z,6.85
2022-11-23T18:47:53.080Z,5.53
2022-11-23T18:50:20.209Z,7.13
2022-11-23T18:52:54.076Z,8.35
2022-11-23T18:55:27.085Z,7.20
2022-11-23T18:57:54.830Z,7.68
2022-11-23T19:00:22.328Z,9.95
2022-11-23T19:03:04.073Z,12.18
2022-11-23T19:05:33.193Z,12.80
2022-11-23T19:08:08.138Z,13.65
2022-11-23T19:10:39.483Z,15.63
2022-11-23T19:13:06.503Z,18.65
2022-11-23T19:15:49.899Z,17.55
2022-11-23T19:18:23.204Z,16.35
2022-11-23T19:20:50.160Z,16.55
2022-11-23T19:23:28.270Z,16.38
2022-11-23T19:26:01.719Z,14.40
2022-11-23T19:28:35.168Z,20.98
2022-11-23T19:31:15.906Z,17.10
2022-11-23T19:33:51.076Z,14.93
2022-11-23T19:36:26.155Z,15.27
2022-11-23T19:38:59.137Z,15.55
2022-11-23T19:41:30.492Z,14.63
2022-11-23T19:44:05.174Z,18.27
2022-11-23T19:46:34.878Z,18.75
2022-11-23T19:49:11.106Z,22.20
2022-11-23T19:51:38.001Z,17.95
2022-11-23T19:54:11.155Z,17.95
2022-11-23T19:56:38.070Z,18.42
2022-11-23T19:59:11.134Z,15.32
2022-11-23T20:01:38.111Z,18.23
2022-11-23T20:04:12.109Z,20.52
2022-11-23T20:06:40.509Z,23.80
2022-11-23T20:09:19.153Z,17.77
2022-11-23T20:11:52.154Z,14.10
2022-11-23T20:14:26.163Z,14.05
2022-11-23T20:16:59.159Z,14.75
2022-11-23T20:19:26.118Z,16.40
2022-11-23T20:21:59.166Z,13.85
2022-11-23T20:24:26.126Z,12.23
2022-11-23T20:26:59.181Z,12.00
2022-11-23T20:29:26.423Z,11.85
2022-11-23T20:32:00.555Z,10.43
2022-11-23T20:34:34.637Z,12.00
2022-11-23T20:37:08.274Z,11.90
2022-11-23T20:39:35.185Z,17.00
2022-11-23T20:42:02.048Z,18.02
2022-11-23T20:44:35.440Z,28.05
2022-11-23T20:47:09.415Z,23.40
2022-11-23T20:49:43.202Z,19.73
2022-11-23T20:52:17.206Z,14.10
2022-11-23T20:54:50.169Z,12.07
2022-11-23T20:57:17.210Z,11.98
2022-11-23T20:59:51.158Z,17.02
2022-11-23T21:02:24.202Z,14.60
2022-11-23T21:04:51.181Z,12.82
2022-11-23T21:07:25.237Z,12.80
2022-11-23T21:09:52.295Z,12.60
2022-11-23T21:12:26.231Z,13.25
2022-11-23T21:14:53.286Z,13.60
2022-11-23T21:17:27.204Z,12.93
2022-11-23T21:19:54.194Z,13.32
2022-11-23T21:22:28.259Z,17.30
2022-11-23T21:25:05.202Z,17.77
2022-11-23T21:27:32.222Z,14.88
2022-11-23T21:29:59.235Z,15.98
2022-11-23T21:32:33.211Z,15.07
2022-11-23T21:35:00.562Z,13.50
2022-11-23T21:37:34.150Z,13.65
2022-11-23T21:40:01.172Z,15.75
2022-11-23T21:42:28.133Z,15.68
2022-11-23T21:45:01.251Z,13.27
2022-11-23T21:47:28.202Z,13.35
2022-11-23T21:50:02.235Z,13.35
2022-11-23T21:52:29.245Z,12.60
2022-11-23T21:55:02.181Z,12.63
2022-11-23T21:57:29.122Z,13.88
2022-11-23T22:00:02.172Z,13.20
2022-11-23T22:02:29.248Z,13.00
2022-11-23T22:05:02.242Z,12.77
2022-11-23T22:07:29.514Z,12.55
2022-11-23T22:10:03.200Z,12.85
2022-11-23T22:12:30.191Z,13.38
2022-11-23T22:14:57.131Z,13.63
2022-11-23T22:17:30.169Z,13.40
2022-11-23T22:19:57.116Z,19.00
2022-11-23T22:22:30.163Z,22.45
2022-11-23T22:24:57.160Z,20.55
2022-11-23T22:27:30.170Z,18.00
2022-11-23T22:29:57.054Z,17.27
2022-11-23T22:32:30.197Z,15.88
2022-11-23T22:34:57.089Z,13.18
2022-11-23T22:37:30.201Z,11.23
2022-11-23T22:39:57.133Z,11.05
2022-11-23T22:42:24.063Z,10.10
2022-11-23T22:44:57.213Z,10.88
2022-11-23T22:47:24.180Z,11.55
2022-11-23T22:49:57.200Z,10.90
2022-11-23T22:52:24.121Z,10.90
2022-11-23T22:54:57.156Z,10.50
2022-11-23T22:57:24.058Z,10.43
2022-11-23T22:59:57.179Z,10.95
2022-11-23T23:02:24.050Z,10.85
2022-11-23T23:04:57.203Z,11.68
2022-11-23T23:07:31.275Z,11.07
2022-11-23T23:09:58.417Z,12.05
2022-11-23T23:12:32.246Z,11.43
2022-11-23T23:14:59.200Z,11.43
2022-11-23T23:17:26.229Z,10.60
2022-11-23T23:19:59.191Z,13.00
2022-11-23T23:22:26.052Z,12.20
2022-11-23T23:24:59.208Z,12.80
2022-11-23T23:27:26.143Z,13.85
2022-11-23T23:29:59.245Z,11.60
2022-11-23T23:32:29.117Z,12.75
2022-11-23T23:35:02.172Z,12.90
2022-11-23T23:37:29.089Z,13.20
2022-11-23T23:40:02.179Z,11.52
2022-11-23T23:42:29.140Z,10.85
2022-11-23T23:45:02.213Z,11.48
2022-11-23T23:47:29.213Z,11.68
2022-11-23T23:50:02.238Z,11.27
2022-11-23T23:52:29.135Z,10.55
2022-11-23T23:55:02.202Z,12.57
2022-11-23T23:57:29.961Z,14.35
